Time;durP1;ratioP1;P1;durP2;ratioP2;P2;SDS_P1;SDS_P2;PMS_P1;PMS_P2;Temp;Humidity;BMP_temperature;BMP_pressure;BME280_temperature;BME280_humidity;BME280_pressure;Samples;Min_cycle;Max_cycle;Signal;HPM_P1;HPM_P2
2022/06/13 00:01:21;;;;;;;7.87;4.70;;;;;;;16.67;100.00;94808.44;5074163;28;20200;-84
2022/06/13 00:03:48;;;;;;;10.10;5.33;;;;;;;16.58;99.96;94810.69;5056480;28;20179;-83
2022/06/13 00:06:13;;;;;;;7.00;5.83;;;;;;;16.50;99.66;94797.03;5056181;28;20309;-84
2022/06/13 00:08:39;;;;;;;7.27;4.87;;;;;;;16.40;99.53;94778.31;5074333;28;20274;-84
2022/06/13 00:11:11;;;;;;;7.50;5.20;;;;;;;16.59;99.46;94814.16;5073964;28;20185;-84
2022/06/13 00:13:38;;;;;;;6.10;4.90;;;;;;;16.29;99.53;94772.09;5074266;28;20645;-83
2022/06/13 00:16:04;;;;;;;6.30;4.57;;;;;;;16.32;99.44;94784.06;5056186;28;20274;-84
2022/06/13 00:18:29;;;;;;;5.80;4.43;;;;;;;16.17;99.87;94760.81;5056014;28;20705;-84
2022/06/13 00:20:55;;;;;;;9.50;5.47;;;;;;;16.44;100.00;94808.66;5055963;28;20205;-84
2022/06/13 00:23:21;;;;;;;9.17;5.47;;;;;;;16.20;100.00;94792.97;5056212;28;20170;-84
2022/06/13 00:25:46;;;;;;;12.73;5.33;;;;;;;16.06;100.00;94775.00;5073827;28;20208;-83
2022/06/13 00:28:12;;;;;;;14.93;8.40;;;;;;;15.81;100.00;94740.97;5073952;28;20202;-83
2022/06/13 00:30:37;;;;;;;29.83;15.60;;;;;;;16.02;100.00;94779.19;5074094;28;20678;-83
2022/06/13 00:33:03;;;;;;;18.10;10.20;;;;;;;16.41;100.00;94831.22;5074003;28;20178;-83
2022/06/13 00:35:28;;;;;;;9.43;6.27;;;;;;;16.35;100.00;94818.91;5074114;28;20186;-83
2022/06/13 00:37:54;;;;;;;13.07;8.03;;;;;;;15.91;99.89;94750.91;5073725;28;20239;-84
2022/06/13 00:40:20;;;;;;;14.53;8.33;;;;;;;16.17;99.97;94787.38;5055961;28;20181;-84
2022/06/13 00:42:46;;;;;;;8.03;5.23;;;;;;;16.12;99.70;94776.66;5073523;28;20603;-84
2022/06/13 00:45:25;;;;;;;8.77;5.73;;;;;;;16.41;99.67;94823.25;5073648;28;20182;-84
2022/06/13 00:47:53;;;;;;;9.87;5.03;;;;;;;15.85;99.94;94755.34;5039664;28;20699;-84
2022/06/13 00:50:33;;;;;;;9.00;5.10;;;;;;;15.62;100.00;94793.53;5074002;28;20187;-83
2022/06/13 00:53:06;;;;;;;12.63;6.77;;;;;;;15.80;100.00;94822.44;5073518;28;20170;-84
2022/06/13 00:55:40;;;;;;;9.10;5.60;;;;;;;15.53;100.00;94772.91;5073657;28;20257;-84
2022/06/13 00:58:06;;;;;;;8.67;6.43;;;;;;;16.00;100.00;94827.22;5073584;28;20174;-83
2022/06/13 01:00:35;;;;;;;8.93;6.37;;;;;;;15.89;100.00;94795.47;5073530;28;20193;-83
2022/06/13 01:03:02;;;;;;;7.43;5.47;;;;;;;16.05;100.00;94811.38;5055634;28;20304;-84
2022/06/13 01:05:31;;;;;;;8.17;6.10;;;;;;;16.18;100.00;94813.66;5072901;28;20239;-84
2022/06/13 01:08:00;;;;;;;8.03;5.10;;;;;;;15.93;100.00;94781.47;5072859;28;20244;-84
2022/06/13 01:13:12;;;;;;;11.00;5.37;;;;;;;15.89;100.00;94758.31;5073522;28;20173;-84
2022/06/13 01:16:01;;;;;;;22.70;8.57;;;;;;;16.26;100.00;94809.75;5073198;28;20178;-84
2022/06/13 01:18:57;;;;;;;14.00;9.03;;;;;;;16.26;99.77;94819.59;5054640;28;20166;-84
2022/06/13 01:21:47;;;;;;;15.50;10.57;;;;;;;16.12;99.45;94793.41;5066871;28;20198;-84
2022/06/13 01:24:28;;;;;;;21.23;10.90;;;;;;;15.82;98.78;94746.03;5072764;28;20174;-83
2022/06/13 01:26:59;;;;;;;7.87;6.43;;;;;;;16.20;99.18;94808.91;5072468;28;20198;-84
2022/06/13 01:29:35;;;;;;;7.20;5.30;;;;;;;16.11;99.44;94805.06;5072579;28;20170;-83
2022/06/13 01:32:10;;;;;;;15.03;9.47;;;;;;;16.09;99.67;94807.16;5054501;28;20166;-84
2022/06/13 01:34:39;;;;;;;10.27;6.73;;;;;;;16.10;99.71;94808.78;5054679;28;20174;-83
2022/06/13 01:37:28;;;;;;;10.53;6.40;;;;;;;16.12;99.75;94808.53;5053784;28;20214;-84
2022/06/13 01:40:05;;;;;;;10.37;6.80;;;;;;;16.14;99.92;94807.25;5072680;28;20658;-83
2022/06/13 01:42:52;;;;;;;9.70;5.37;;;;;;;16.15;99.29;94816.81;5072362;28;20252;-84
2022/06/13 01:45:37;;;;;;;9.00;6.47;;;;;;;16.17;99.40;94816.56;5054198;28;20186;-83
2022/06/13 01:48:06;;;;;;;8.70;5.13;;;;;;;16.16;99.45;94815.78;5054470;28;20166;-84
2022/06/13 01:50:48;;;;;;;6.23;5.40;;;;;;;15.84;99.17;94773.13;5072362;28;20178;-84
2022/06/13 01:53:38;;;;;;;7.50;5.70;;;;;;;16.04;99.26;94817.72;5072578;28;20178;-83
2022/06/13 01:56:12;;;;;;;10.20;6.83;;;;;;;15.87;100.00;94816.97;5073108;28;20197;-84
2022/06/13 01:58:58;;;;;;;28.23;11.63;;;;;;;15.81;100.00;94820.59;5072454;28;20174;-83
2022/06/13 02:01:49;;;;;;;14.53;9.77;;;;;;;15.83;100.00;94821.94;5072924;28;20198;-83
2022/06/13 02:04:21;;;;;;;36.17;22.10;;;;;;;15.55;100.00;94770.84;5047077;28;20182;-83
2022/06/13 02:07:03;;;;;;;12.80;9.10;;;;;;;15.92;100.00;94821.53;5071945;28;20226;-83
2022/06/13 02:09:35;;;;;;;14.40;10.50;;;;;;;15.81;100.00;94796.72;5054533;28;20186;-83
2022/06/13 02:12:01;;;;;;;10.30;6.90;;;;;;;15.66;100.00;94783.19;5054506;28;20206;-83
2022/06/13 02:14:41;;;;;;;8.37;5.50;;;;;;;15.54;100.00;94770.06;5054073;28;20216;-83
2022/06/13 02:17:07;;;;;;;7.40;5.53;;;;;;;15.88;100.00;94817.75;5046066;28;20200;-83
2022/06/13 02:19:43;;;;;;;7.87;5.90;;;;;;;15.87;100.00;94827.59;5053953;28;20178;-84
2022/06/13 02:22:14;;;;;;;7.93;6.27;;;;;;;15.90;100.00;94832.41;5071853;28;20194;-83
2022/06/13 02:24:50;;;;;;;8.33;6.07;;;;;;;15.57;100.00;94768.78;5072252;28;20269;-83
2022/06/13 02:27:19;;;;;;;9.87;5.87;;;;;;;15.65;100.00;94782.44;5072014;28;20221;-83
2022/06/13 02:29:56;;;;;;;7.07;5.50;;;;;;;15.56;99.57;94767.97;5071466;28;20178;-83
2022/06/13 02:32:28;;;;;;;9.40;5.33;;;;;;;16.03;99.47;94837.38;5071687;28;20657;-83
2022/06/13 02:35:29;;;;;;;7.13;5.43;;;;;;;16.04;99.45;94835.50;5071968;28;20166;-83
2022/06/13 02:38:01;;;;;;;9.70;5.73;;;;;;;15.67;99.20;94785.63;5040600;28;20243;-83
2022/06/13 02:40:34;;;;;;;7.87;4.97;;;;;;;15.88;99.22;94821.22;5072639;28;20162;-83
2022/06/13 02:43:11;;;;;;;8.17;5.23;;;;;;;15.61;98.96;94772.53;5071965;28;20208;-83
2022/06/13 02:45:44;;;;;;;9.37;5.37;;;;;;;15.95;99.16;94834.31;5071703;28;20174;-83
2022/06/13 02:48:37;;;;;;;7.70;4.73;;;;;;;15.97;99.20;94833.03;5053786;28;20182;-83
2022/06/13 02:51:39;;;;;;;8.37;5.37;;;;;;;15.70;99.56;94802.91;5075672;28;20166;-83
2022/06/13 02:54:08;;;;;;;8.77;5.27;;;;;;;15.62;99.38;94795.38;5070901;28;20181;-83
2022/06/13 02:59:42;;;;;;;10.73;6.00;;;;;;;15.83;99.77;94837.88;5075090;28;20261;-83
2022/06/13 03:02:11;;;;;;;16.07;10.27;;;;;;;15.90;99.42;94834.25;5056537;28;20195;-83
2022/06/13 03:04:54;;;;;;;12.13;7.77;;;;;;;15.77;99.51;94812.31;5074370;28;20253;-83
2022/06/13 03:07:32;;;;;;;9.33;6.70;;;;;;;15.78;99.43;94816.56;5056416;28;20229;-83
2022/06/13 03:10:18;;;;;;;10.57;7.20;;;;;;;15.74;99.10;94810.13;5074875;28;20245;-83
2022/06/13 03:12:54;;;;;;;10.57;6.03;;;;;;;15.87;98.80;94830.22;5074664;28;20162;-83
2022/06/13 03:15:44;;;;;;;30.27;18.37;;;;;;;15.93;99.18;94845.19;5074977;28;20171;-83
2022/06/13 03:18:37;;;;;;;11.60;7.60;;;;;;;15.82;99.56;94835.47;5072051;28;20167;-83
2022/06/13 03:21:37;;;;;;;14.30;8.23;;;;;;;15.95;99.59;94850.25;5076224;28;20198;-83
2022/06/13 03:24:12;;;;;;;15.57;7.10;;;;;;;16.03;99.60;94852.50;5040827;28;20194;-84
2022/06/13 03:26:50;;;;;;;21.60;13.87;;;;;;;16.12;100.00;94854.47;5074785;28;20167;-83
2022/06/13 03:29:25;;;;;;;33.37;19.77;;;;;;;16.10;100.00;94837.97;5077646;28;20182;-82
2022/06/13 03:31:56;;;;;;;25.70;17.77;;;;;;;16.29;99.69;94867.72;5089922;28;20166;-83
2022/06/13 03:34:27;;;;;;;10.80;7.63;;;;;;;16.37;99.03;94866.50;5087672;28;20178;-83
2022/06/13 03:37:04;;;;;;;24.63;14.33;;;;;;;16.42;98.79;94872.69;5075872;28;20174;-83
2022/06/13 03:39:36;;;;;;;25.63;15.70;;;;;;;16.29;98.71;94843.00;5074732;28;20174;-83
2022/06/13 03:42:08;;;;;;;15.60;10.63;;;;;;;16.20;98.67;94840.78;5074806;28;20198;-83
2022/06/13 03:44:59;;;;;;;11.30;7.37;;;;;;;16.32;99.52;94843.34;5075357;28;20166;-83
2022/06/13 03:47:41;;;;;;;32.63;18.10;;;;;;;16.68;100.00;94857.88;5071947;28;20186;-82
2022/06/13 03:50:07;;;;;;;24.27;15.57;;;;;;;17.05;99.48;94873.16;5074451;28;20680;-83
2022/06/13 03:52:36;;;;;;;19.97;13.53;;;;;;;17.04;97.97;94850.31;5071897;28;20166;-83
2022/06/13 03:55:14;;;;;;;12.13;6.90;;;;;;;17.31;96.86;94875.03;5073709;28;20179;-83
2022/06/13 03:57:39;;;;;;;11.75;8.57;;;;;;;17.41;97.01;94869.00;5068753;28;20177;-81
2022/06/13 04:00:11;;;;;;;13.85;10.02;;;;;;;17.53;96.76;94866.97;5072628;28;20182;-81
2022/06/13 04:02:40;;;;;;;9.63;6.97;;;;;;;17.57;95.97;94873.38;5071639;28;20226;-82
2022/06/13 04:05:14;;;;;;;17.55;11.88;;;;;;;17.60;96.21;94867.56;5072405;28;20175;-82
2022/06/13 04:07:41;;;;;;;20.83;12.02;;;;;;;17.70;96.30;94876.47;5055468;28;20702;-82
2022/06/13 04:10:10;;;;;;;14.23;7.38;;;;;;;17.63;96.61;94840.47;5071818;28;20179;-81
2022/06/13 04:12:43;;;;;;;11.85;6.93;;;;;;;17.97;96.23;94876.41;5072692;28;20181;-82
2022/06/13 04:15:08;;;;;;;10.77;6.70;;;;;;;18.22;95.81;94878.44;5073330;28;20175;-82
2022/06/13 04:17:45;;;;;;;9.98;6.78;;;;;;;18.50;96.69;94877.25;5073611;28;20228;-83
2022/06/13 04:20:30;;;;;;;10.88;6.78;;;;;;;18.80;95.75;94876.59;5073062;28;20201;-83
2022/06/13 04:23:13;;;;;;;9.65;5.88;;;;;;;19.02;93.81;94877.22;5072057;28;20194;-83
2022/06/13 04:25:46;;;;;;;12.68;6.57;;;;;;;19.25;92.45;94875.94;5068265;28;20177;-83
2022/06/13 04:28:14;;;;;;;10.90;5.97;;;;;;;19.15;92.15;94823.34;5073907;28;20251;-83
2022/06/13 04:30:42;;;;;;;7.20;5.43;;;;;;;19.58;90.27;94872.81;5075142;28;20653;-82
2022/06/13 04:33:33;;;;;;;11.13;5.28;;;;;;;19.75;90.01;94867.19;5073488;28;20166;-82
2022/06/13 04:35:59;;;;;;;9.15;5.53;;;;;;;19.71;89.90;94850.13;5059549;28;20261;-82
2022/06/13 04:38:27;;;;;;;7.70;5.35;;;;;;;20.05;90.54;94863.72;5055467;28;20178;-82
2022/06/13 04:40:59;;;;;;;13.10;5.13;;;;;;;20.04;89.67;94827.38;5073347;28;20293;-84
2022/06/13 04:43:28;;;;;;;9.05;5.30;;;;;;;20.59;89.36;94873.75;5073064;28;20170;-84
2022/06/13 04:46:00;;;;;;;6.32;5.07;;;;;;;20.77;86.93;94869.69;5073483;28;20178;-81
2022/06/13 04:48:26;;;;;;;6.30;5.03;;;;;;;20.70;85.78;94832.53;5073499;28;20174;-81
2022/06/13 04:50:56;;;;;;;6.30;4.78;;;;;;;21.18;85.08;94873.03;5072507;28;20653;-81
2022/06/13 04:53:42;;;;;;;6.05;4.93;;;;;;;21.42;84.89;94860.56;5073412;28;20191;-81
2022/06/13 04:56:08;;;;;;;7.47;4.70;;;;;;;21.67;83.46;94844.28;5073193;28;20170;-81
2022/06/13 04:58:37;;;;;;;6.80;4.95;;;;;;;22.07;82.68;94858.44;5073358;28;20253;-81
2022/06/13 05:01:11;;;;;;;7.57;4.85;;;;;;;22.38;80.68;94856.28;5073235;28;20202;-81
2022/06/13 05:03:39;;;;;;;9.48;4.72;;;;;;;22.52;79.64;94833.03;5073809;28;20166;-81
2022/06/13 05:06:29;;;;;;;6.90;4.45;;;;;;;23.15;78.97;94875.78;5073387;28;20704;-81
2022/06/13 05:08:58;;;;;;;5.03;4.38;;;;;;;23.51;76.11;94874.25;5073639;28;20214;-81
2022/06/13 05:11:36;;;;;;;9.43;4.45;;;;;;;23.95;75.13;94871.16;5071972;28;20167;-81
2022/06/13 05:14:09;;;;;;;5.75;4.28;;;;;;;24.45;73.98;94879.47;5073124;28;20208;-81
2022/06/13 05:16:50;;;;;;;4.75;4.00;;;;;;;24.91;72.88;94878.59;5072986;28;20162;-81
2022/06/13 05:19:31;;;;;;;7.25;4.60;;;;;;;25.29;69.41;94889.94;5054803;28;20170;-81
2022/06/13 05:22:21;;;;;;;11.15;7.72;;;;;;;25.61;67.28;94884.41;5065583;28;20204;-81
2022/06/13 05:24:52;;;;;;;10.45;6.30;;;;;;;26.09;67.05;94883.81;5072678;28;20183;-81
2022/06/13 05:27:18;;;;;;;9.90;7.25;;;;;;;26.33;65.53;94860.00;5072607;28;20185;-81
2022/06/13 05:29:44;;;;;;;6.07;4.88;;;;;;;26.84;63.56;94866.75;5072488;28;20177;-81
2022/06/13 05:32:13;;;;;;;6.88;3.88;;;;;;;27.24;62.02;94887.28;5072484;28;20253;-81
2022/06/13 05:34:42;;;;;;;10.00;5.00;;;;;;;27.55;61.69;94883.66;5072628;28;20174;-81
2022/06/13 05:37:09;;;;;;;5.00;4.00;;;;;;;27.78;60.93;94877.00;5072311;28;20228;-82
2022/06/13 05:39:36;;;;;;;8.63;6.47;;;;;;;27.78;59.32;94880.50;5072291;28;20185;-81
2022/06/13 05:42:02;;;;;;;9.15;6.30;;;;;;;27.38;60.26;94841.16;5072220;28;20198;-81
2022/06/13 05:44:28;;;;;;;10.60;6.53;;;;;;;27.50;60.27;94856.75;5072180;28;20209;-81
2022/06/13 05:46:53;;;;;;;8.98;4.57;;;;;;;27.46;61.66;94799.78;5054119;28;20247;-81
2022/06/13 05:49:19;;;;;;;11.15;7.57;;;;;;;27.93;60.31;94871.13;5072157;28;20178;-81
2022/06/13 05:51:45;;;;;;;8.30;5.63;;;;;;;28.12;60.95;94868.03;5072203;28;20177;-81
2022/06/13 05:54:11;;;;;;;10.10;5.57;;;;;;;28.21;58.89;94874.28;5072432;28;20190;-81
2022/06/13 05:56:38;;;;;;;10.95;6.63;;;;;;;28.12;59.71;94881.59;5071206;28;20174;-81
2022/06/13 05:59:05;;;;;;;6.25;4.93;;;;;;;28.09;59.59;94871.41;5071175;28;20227;-81
2022/06/13 06:01:32;;;;;;;4.75;4.10;;;;;;;28.00;59.21;94876.03;5071224;28;20202;-81
2022/06/13 06:03:59;;;;;;;6.57;4.43;;;;;;;27.57;61.15;94828.16;5071212;28;20178;-81
2022/06/13 06:06:26;;;;;;;4.75;4.25;;;;;;;27.86;60.47;94869.97;5071198;28;20226;-81
2022/06/13 06:08:54;;;;;;;4.90;4.32;;;;;;;27.99;61.01;94872.53;5072372;28;20182;-81
2022/06/13 06:11:23;;;;;;;7.75;4.10;;;;;;;28.14;59.67;94877.44;5071851;28;20175;-81
2022/06/13 06:13:49;;;;;;;4.88;4.35;;;;;;;28.13;58.34;94873.16;5071605;28;20532;-81
2022/06/13 06:16:17;;;;;;;7.63;3.78;;;;;;;28.11;58.67;94872.66;5071935;28;20728;-81
2022/06/13 06:18:43;;;;;;;4.53;3.97;;;;;;;28.01;59.34;94877.63;5072273;28;20268;-81
2022/06/13 06:21:08;;;;;;;5.03;3.88;;;;;;;27.88;58.43;94873.16;5071825;28;20691;-81
2022/06/13 06:23:35;;;;;;;4.00;3.60;;;;;;;27.52;59.35;94855.31;5071754;28;20697;-81
2022/06/13 06:26:01;;;;;;;4.07;3.67;;;;;;;27.59;61.21;94880.00;5071919;28;20541;-81
2022/06/13 06:28:27;;;;;;;5.20;3.55;;;;;;;27.54;61.27;94887.50;5072302;28;20257;-81
2022/06/13 06:30:55;;;;;;;5.78;3.70;;;;;;;27.62;59.88;94886.69;5053981;28;20671;-81
2022/06/13 06:33:21;;;;;;;8.85;3.58;;;;;;;27.25;60.42;94828.56;5071508;28;20186;-81
2022/06/13 06:35:48;;;;;;;4.75;3.83;;;;;;;27.67;60.13;94878.44;5071789;28;20614;-81
2022/06/13 06:38:13;;;;;;;6.07;3.88;;;;;;;27.49;58.16;94855.16;5071631;28;20260;-81
2022/06/13 06:40:39;;;;;;;3.88;3.40;;;;;;;27.44;58.30;94880.44;5071745;28;20180;-81
2022/06/13 06:43:05;;;;;;;7.18;4.05;;;;;;;27.17;60.62;94875.28;5071773;28;20253;-81
2022/06/13 06:45:30;;;;;;;7.70;4.03;;;;;;;27.15;60.80;94854.00;5071683;28;20249;-81
2022/06/13 06:47:56;;;;;;;4.93;3.55;;;;;;;27.36;61.22;94878.53;5071905;28;20177;-81
2022/06/13 06:50:25;;;;;;;4.30;3.30;;;;;;;27.62;59.41;94887.50;5071207;28;20186;-81
2022/06/13 06:52:51;;;;;;;6.78;3.40;;;;;;;27.67;57.71;94865.72;5071665;28;20150;-81
2022/06/13 07:00:49;;;;;;;5.53;3.45;;;;;;;27.92;59.27;94864.09;5071492;28;20232;-81
2022/06/13 07:03:15;;;;;;;4.32;3.83;;;;;;;27.47;55.21;94819.53;5071519;28;20223;-81
2022/06/13 07:05:40;;;;;;;4.55;3.70;;;;;;;27.56;59.28;94872.53;5071497;28;20173;-81
2022/06/13 07:08:06;;;;;;;9.02;4.05;;;;;;;27.66;61.14;94876.84;5071106;28;20214;-81
2022/06/13 07:10:32;;;;;;;8.02;3.85;;;;;;;27.74;57.23;94878.75;5071283;28;20258;-81
2022/06/13 07:12:57;;;;;;;6.18;4.07;;;;;;;27.65;59.30;94861.72;5071312;28;20763;-81
2022/06/13 07:15:23;;;;;;;5.07;3.60;;;;;;;27.84;60.36;94883.06;5071489;28;20174;-81
2022/06/13 07:17:49;;;;;;;6.38;4.00;;;;;;;28.03;59.48;94884.28;5071020;28;20166;-81
2022/06/13 07:20:15;;;;;;;5.82;3.90;;;;;;;28.19;55.88;94873.81;5071511;28;20181;-81
2022/06/13 07:22:52;;;;;;;6.35;3.72;;;;;;;28.36;57.98;94878.41;5071407;28;20226;-81
2022/06/13 07:25:24;;;;;;;6.25;3.83;;;;;;;28.57;59.84;94876.56;5071086;28;20253;-84
2022/06/13 07:27:49;;;;;;;6.10;4.38;;;;;;;28.15;55.52;94879.03;5070757;28;20198;-81
2022/06/13 07:30:17;;;;;;;6.05;3.88;;;;;;;27.68;59.02;94878.09;5070646;28;20628;-81
2022/06/13 07:32:44;;;;;;;3.70;3.22;;;;;;;27.84;60.66;94874.94;5070717;28;20198;-81
2022/06/13 07:35:12;;;;;;;3.55;2.95;;;;;;;28.17;59.55;94876.06;5071913;28;20253;-81
2022/06/13 07:40:23;;;;;;;6.28;3.35;;;;;;;28.09;54.79;94872.22;5074731;28;20642;-81
2022/06/13 07:42:53;;;;;;;3.92;3.22;;;;;;;27.70;58.26;94840.69;5055125;28;20186;-81
2022/06/13 07:45:22;;;;;;;6.20;3.65;;;;;;;27.77;54.42;94843.72;5073014;28;20181;-81
2022/06/13 07:47:49;;;;;;;4.30;3.50;;;;;;;28.05;57.89;94884.78;5074445;28;20249;-80
2022/06/13 07:50:17;;;;;;;3.63;2.90;;;;;;;28.39;57.63;94880.44;5073770;28;20233;-80
2022/06/13 07:52:43;;;;;;;3.53;2.70;;;;;;;28.62;55.55;94879.13;5071674;28;20175;-80
2022/06/13 07:55:09;;;;;;;8.75;2.95;;;;;;;28.52;53.55;94866.72;5073290;28;20212;-81
2022/06/13 07:57:36;;;;;;;3.25;2.67;;;;;;;28.48;53.84;94854.13;5073070;28;21096;-82
2022/06/13 08:00:02;;;;;;;3.75;2.83;;;;;;;28.24;53.20;94843.84;5055731;28;20189;-81
2022/06/13 08:02:31;;;;;;;4.85;3.28;;;;;;;28.19;54.14;94875.72;5073529;28;20521;-80
2022/06/13 08:04:57;;;;;;;5.07;3.00;;;;;;;28.10;53.19;94854.06;5075043;28;20173;-80
2022/06/13 08:07:22;;;;;;;3.53;2.92;;;;;;;28.32;52.21;94880.94;5073426;28;20252;-80
2022/06/13 08:09:48;;;;;;;3.85;3.00;;;;;;;28.17;52.19;94853.59;5073752;28;20179;-81
2022/06/13 08:12:16;;;;;;;4.15;3.00;;;;;;;28.24;53.50;94875.56;5055508;28;20172;-81
2022/06/13 08:14:45;;;;;;;4.75;3.28;;;;;;;28.15;53.93;94872.81;5063282;28;20604;-80
2022/06/13 08:17:12;;;;;;;3.35;3.05;;;;;;;28.12;53.69;94876.97;5074036;28;20166;-80
2022/06/13 08:19:37;;;;;;;4.78;2.90;;;;;;;28.05;53.57;94870.44;5074952;28;20234;-80
2022/06/13 08:22:03;;;;;;;8.52;3.35;;;;;;;28.10;53.70;94873.81;5074061;28;20297;-81
2022/06/13 08:24:29;;;;;;;5.55;3.53;;;;;;;28.19;53.31;94873.03;5074234;28;20243;-81
2022/06/13 08:26:54;;;;;;;5.53;3.42;;;;;;;27.93;55.99;94860.28;5074351;28;20277;-84
2022/06/13 08:29:21;;;;;;;11.13;2.92;;;;;;;27.84;54.25;94866.81;5056367;28;20624;-81
2022/06/13 08:31:46;;;;;;;3.63;3.03;;;;;;;27.83;53.99;94876.06;5074234;28;20171;-81
2022/06/13 08:34:12;;;;;;;8.07;2.78;;;;;;;27.91;55.92;94877.97;5056327;28;20577;-81
2022/06/13 08:36:37;;;;;;;5.28;2.88;;;;;;;27.83;53.55;94889.59;5074071;28;20204;-84
2022/06/13 08:39:03;;;;;;;2.97;2.45;;;;;;;27.69;53.24;94882.41;5061066;28;20178;-81
2022/06/13 08:41:37;;;;;;;2.60;2.40;;;;;;;27.51;52.67;94888.88;5073340;28;20324;-83
2022/06/13 08:44:22;;;;;;;4.05;2.63;;;;;;;27.22;57.40;94840.81;5073645;28;20248;-83
2022/06/13 08:47:00;;;;;;;2.67;2.28;;;;;;;27.57;54.56;94884.16;5069422;28;20162;-79
2022/06/13 08:49:39;;;;;;;2.63;2.33;;;;;;;27.29;53.45;94889.81;5073312;28;20178;-79
2022/06/13 08:52:28;;;;;;;2.88;2.55;;;;;;;26.77;55.01;94880.72;5072098;28;20178;-79
2022/06/13 08:55:15;;;;;;;3.33;2.28;;;;;;;26.44;55.98;94880.25;5071630;28;20170;-78
2022/06/13 08:57:51;;;;;;;4.85;2.90;;;;;;;26.34;57.68;94877.81;5073031;28;20257;-79
2022/06/13 09:00:23;;;;;;;3.00;2.67;;;;;;;26.56;57.54;94879.66;5073009;28;20166;-78
2022/06/13 09:03:18;;;;;;;3.17;2.47;;;;;;;26.56;54.67;94869.66;5067906;28;20253;-79
2022/06/13 09:06:18;;;;;;;4.47;2.60;;;;;;;26.90;54.83;94870.91;5070370;28;20183;-78
2022/06/13 09:09:02;;;;;;;9.70;2.67;;;;;;;26.83;54.31;94873.25;5055601;28;20285;-82
2022/06/13 09:11:37;;;;;;;5.18;3.05;;;;;;;26.61;55.42;94857.94;5073045;28;20175;-86
2022/06/13 09:14:21;;;;;;;5.43;2.70;;;;;;;26.65;54.31;94872.41;5046796;28;20209;-82
2022/06/13 09:16:58;;;;;;;7.07;2.78;;;;;;;26.61;55.99;94858.72;5073147;28;20172;-82
2022/06/13 09:19:33;;;;;;;8.02;2.65;;;;;;;27.02;56.95;94868.44;5064138;28;20228;-80
2022/06/13 09:22:10;;;;;;;3.15;2.80;;;;;;;27.19;53.87;94873.88;5075704;28;20190;-80
2022/06/13 09:24:56;;;;;;;3.22;2.78;;;;;;;26.92;52.63;94841.69;5082862;28;20174;-81
2022/06/13 09:27:42;;;;;;;9.40;2.88;;;;;;;27.21;57.09;94865.47;5078517;28;20181;-81
2022/06/13 09:30:17;;;;;;;3.38;2.80;;;;;;;27.21;53.24;94873.56;5076657;28;20174;-80
2022/06/13 09:32:58;;;;;;;5.85;2.28;;;;;;;27.15;52.84;94870.22;5072593;28;20258;-81
2022/06/13 09:35:33;;;;;;;5.47;2.80;;;;;;;26.56;53.83;94809.44;5072697;28;20223;-83
2022/06/13 09:38:23;;;;;;;3.88;2.67;;;;;;;26.65;53.13;94845.38;5072124;28;20184;-81
2022/06/13 09:41:06;;;;;;;5.00;2.88;;;;;;;26.53;54.34;94853.28;5072939;28;20174;-82
2022/06/13 09:44:05;;;;;;;4.75;2.80;;;;;;;26.66;54.08;94855.09;5058215;28;20253;-82
2022/06/13 09:46:43;;;;;;;3.47;3.05;;;;;;;26.50;54.26;94862.81;5065832;28;20167;-83
2022/06/13 09:49:36;;;;;;;6.45;3.05;;;;;;;26.41;57.86;94842.25;5072130;28;20530;-81
2022/06/13 09:52:22;;;;;;;3.65;2.75;;;;;;;26.62;58.76;94854.94;5054552;28;20572;-83
2022/06/13 09:55:16;;;;;;;3.53;2.95;;;;;;;26.71;54.61;94852.25;5072391;28;20601;-81
2022/06/13 09:57:48;;;;;;;3.80;2.92;;;;;;;26.85;54.71;94860.25;5071819;28;20213;-80
2022/06/13 10:00:48;;;;;;;4.57;3.03;;;;;;;26.79;53.92;94846.09;5071822;28;20170;-81
2022/06/13 10:03:30;;;;;;;5.72;3.15;;;;;;;26.79;51.07;94848.78;5068785;28;20178;-81
2022/06/13 10:06:16;;;;;;;3.95;3.55;;;;;;;26.74;51.06;94853.50;5066155;28;20158;-82
2022/06/13 10:08:45;;;;;;;3.53;3.22;;;;;;;26.63;53.10;94853.81;5070434;28;20191;-80
2022/06/13 10:11:16;;;;;;;5.95;3.10;;;;;;;26.43;54.64;94856.25;5071787;28;20195;-80
2022/06/13 10:14:06;;;;;;;6.00;2.83;;;;;;;26.36;54.61;94848.59;5071022;28;20633;-80
2022/06/13 10:16:50;;;;;;;3.45;3.10;;;;;;;26.43;55.17;94840.06;5071541;28;20256;-80
2022/06/13 10:19:56;;;;;;;5.07;3.30;;;;;;;25.98;54.38;94847.38;5067272;28;20258;-80
2022/06/13 10:23:13;;;;;;;5.18;2.85;;;;;;;25.82;56.21;94842.38;5078051;28;20197;-80
2022/06/13 10:26:12;;;;;;;4.22;2.80;;;;;;;25.89;56.97;94836.53;5031911;28;20278;-80
2022/06/13 10:29:06;;;;;;;4.38;2.78;;;;;;;25.99;57.41;94838.19;5076721;28;20551;-80
2022/06/13 10:31:51;;;;;;;4.45;3.38;;;;;;;26.05;56.25;94839.66;5073598;28;20549;-80
2022/06/13 10:34:38;;;;;;;3.63;3.03;;;;;;;26.19;54.92;94837.69;5053807;28;20175;-80
2022/06/13 10:37:27;;;;;;;5.65;3.05;;;;;;;25.67;54.25;94810.38;5067980;28;20589;-80
2022/06/13 10:39:57;;;;;;;5.60;2.78;;;;;;;25.59;54.91;94813.81;5070999;28;20196;-80
2022/06/13 10:42:27;;;;;;;3.58;3.20;;;;;;;25.47;58.42;94797.34;5071020;28;20748;-80
2022/06/13 10:44:53;;;;;;;5.05;2.97;;;;;;;25.34;57.75;94793.56;5065626;28;20174;-80
2022/06/13 10:47:28;;;;;;;4.07;3.70;;;;;;;25.59;57.77;94821.91;5071220;28;20174;-80
2022/06/13 10:50:07;;;;;;;5.65;3.20;;;;;;;25.72;57.63;94815.63;5071042;28;20265;-80
2022/06/13 10:52:39;;;;;;;5.05;3.08;;;;;;;25.93;56.69;94815.94;5071740;28;20174;-80
2022/06/13 10:55:09;;;;;;;6.35;3.72;;;;;;;26.12;58.51;94818.44;5071504;28;20174;-80
2022/06/13 10:57:49;;;;;;;4.72;3.40;;;;;;;26.02;55.33;94784.41;5071618;28;20178;-80
2022/06/13 11:00:24;;;;;;;5.57;3.10;;;;;;;26.20;57.43;94785.31;5072050;28;20170;-80
2022/06/13 11:02:51;;;;;;;6.70;3.00;;;;;;;26.37;57.10;94793.50;5070260;28;20232;-80
2022/06/13 11:05:54;;;;;;;7.00;3.85;;;;;;;26.51;60.45;94788.78;5086382;28;20196;-81
2022/06/13 11:08:20;;;;;;;4.57;3.97;;;;;;;26.54;56.01;94785.47;5056992;28;20241;-80
2022/06/13 11:10:57;;;;;;;7.22;3.53;;;;;;;26.66;55.01;94790.25;5074344;28;20198;-80
2022/06/13 11:13:30;;;;;;;5.65;3.83;;;;;;;26.67;55.11;94784.53;5075142;28;20257;-80
2022/06/13 11:24:53;;;;;;;4.30;3.60;;;;;;;26.97;58.78;94758.56;5033647;28;20186;-80
2022/06/13 11:27:40;;;;;;;6.47;3.28;;;;;;;26.92;54.19;94766.81;5080272;28;20578;-80
2022/06/13 11:30:27;;;;;;;6.63;3.70;;;;;;;26.90;53.73;94752.78;5072509;28;20166;-80
2022/06/13 11:33:07;;;;;;;5.45;3.80;;;;;;;26.76;52.88;94757.53;5073671;28;20175;-80
2022/06/13 11:36:07;;;;;;;4.13;3.67;;;;;;;26.59;53.52;94752.91;5074200;28;20312;-80
2022/06/13 11:38:33;;;;;;;8.07;3.80;;;;;;;26.55;54.83;94757.31;5020628;28;20194;-80
2022/06/13 11:41:06;;;;;;;5.30;3.35;;;;;;;26.66;54.94;94741.63;5073401;28;20166;-81
2022/06/13 11:43:34;;;;;;;5.43;3.80;;;;;;;26.81;54.93;94729.59;5074463;28;20167;-80
2022/06/13 11:46:03;;;;;;;7.03;4.13;;;;;;;26.93;54.43;94721.69;5072834;28;20634;-80
2022/06/13 11:48:30;;;;;;;6.10;3.42;;;;;;;27.03;54.21;94708.66;5074181;28;20669;-80
2022/06/13 11:50:58;;;;;;;5.38;3.58;;;;;;;27.20;56.92;94731.38;5072758;28;20206;-80
2022/06/13 11:53:36;;;;;;;5.68;3.53;;;;;;;27.25;52.94;94733.91;5074029;28;20189;-80
2022/06/13 11:56:06;;;;;;;4.20;3.80;;;;;;;27.06;54.33;94701.81;5073879;28;20171;-80
2022/06/13 11:58:37;;;;;;;5.18;3.83;;;;;;;27.26;53.40;94744.44;5073198;28;20729;-83
2022/06/13 12:01:35;;;;;;;6.85;3.90;;;;;;;27.21;54.58;94747.31;5073490;28;20268;-81
2022/06/13 12:04:16;;;;;;;6.20;4.05;;;;;;;27.17;53.46;94727.41;5071977;28;20163;-81
2022/06/13 12:06:46;;;;;;;6.32;4.10;;;;;;;27.05;54.58;94711.03;5072055;28;20218;-79
2022/06/13 12:09:31;;;;;;;5.70;4.13;;;;;;;27.29;54.77;94719.47;5073475;28;20228;-81
2022/06/13 12:12:03;;;;;;;6.35;4.15;;;;;;;27.42;52.71;94713.06;5072723;28;20199;-80
2022/06/13 12:14:30;;;;;;;6.93;4.35;;;;;;;27.55;53.42;94708.66;5074279;28;20260;-80
2022/06/13 12:17:10;;;;;;;4.70;4.07;;;;;;;27.62;54.43;94713.56;5056420;28;20170;-82
2022/06/13 12:20:02;;;;;;;4.03;3.50;;;;;;;27.64;50.50;94706.72;5074349;28;20166;-80
2022/06/13 12:22:43;;;;;;;6.13;4.00;;;;;;;27.37;51.47;94699.72;5073793;28;20301;-79
2022/06/13 12:25:35;;;;;;;6.55;4.47;;;;;;;27.13;52.13;94694.03;5056371;28;20656;-80